sensor_id;sensor_type;location;lat;lon;timestamp;temperature;humidity
17370;DHT22;8802;52.402;4.920;2023-04-07T00:01:09;12.30;99.90
17370;DHT22;8802;52.402;4.920;2023-04-07T00:03:37;12.30;99.90
17370;DHT22;8802;52.402;4.920;2023-04-07T00:06:06;12.30;99.90
17370;DHT22;8802;52.402;4.920;2023-04-07T00:08:33;12.30;99.90
17370;DHT22;8802;52.402;4.920;2023-04-07T00:11:00;12.30;99.90
17370;DHT22;8802;52.402;4.920;2023-04-07T00:13:27;12.30;99.90
17370;DHT22;8802;52.402;4.920;2023-04-07T00:15:54;12.30;99.90
17370;DHT22;8802;52.402;4.920;2023-04-07T00:18:21;12.30;99.90
17370;DHT22;8802;52.402;4.920;2023-04-07T00:20:48;12.30;99.90
17370;DHT22;8802;52.402;4.920;2023-04-07T00:23:16;12.30;99.90
17370;DHT22;8802;52.402;4.920;2023-04-07T00:25:44;12.30;99.90
17370;DHT22;8802;52.402;4.920;2023-04-07T00:28:13;12.30;99.90
17370;DHT22;8802;52.402;4.920;2023-04-07T00:30:40;12.30;99.90
17370;DHT22;8802;52.402;4.920;2023-04-07T00:33:07;12.30;99.90
17370;DHT22;8802;52.402;4.920;2023-04-07T00:35:34;12.30;99.90
17370;DHT22;8802;52.402;4.920;2023-04-07T00:38:00;12.30;99.90
17370;DHT22;8802;52.402;4.920;2023-04-07T00:40:29;12.30;99.90
17370;DHT22;8802;52.402;4.920;2023-04-07T00:42:56;12.30;99.90
17370;DHT22;8802;52.402;4.920;2023-04-07T00:45:23;12.30;99.90
17370;DHT22;8802;52.402;4.920;2023-04-07T00:47:50;12.30;99.90
17370;DHT22;8802;52.402;4.920;2023-04-07T00:50:17;12.30;99.90
17370;DHT22;8802;52.402;4.920;2023-04-07T00:52:44;12.30;99.90
17370;DHT22;8802;52.402;4.920;2023-04-07T00:55:11;12.30;99.90
17370;DHT22;8802;52.402;4.920;2023-04-07T00:57:40;12.30;99.90
17370;DHT22;8802;52.402;4.920;2023-04-07T01:00:08;12.30;99.90
17370;DHT22;8802;52.402;4.920;2023-04-07T01:02:39;12.30;99.90
17370;DHT22;8802;52.402;4.920;2023-04-07T01:05:12;12.30;99.90
17370;DHT22;8802;52.402;4.920;2023-04-07T01:07:47;12.30;99.90
17370;DHT22;8802;52.402;4.920;2023-04-07T01:10:32;12.30;99.90
17370;DHT22;8802;52.402;4.920;2023-04-07T01:13:05;12.30;99.90
17370;DHT22;8802;52.402;4.920;2023-04-07T01:15:34;12.30;99.90
17370;DHT22;8802;52.402;4.920;2023-04-07T01:18:07;12.30;99.90
17370;DHT22;8802;52.402;4.920;2023-04-07T01:20:36;12.30;99.90
17370;DHT22;8802;52.402;4.920;2023-04-07T01:23:05;12.30;99.90
17370;DHT22;8802;52.402;4.920;2023-04-07T01:25:43;12.30;99.90
17370;DHT22;8802;52.402;4.920;2023-04-07T01:31:13;12.30;99.90
17370;DHT22;8802;52.402;4.920;2023-04-07T01:33:43;12.20;99.90
17370;DHT22;8802;52.402;4.920;2023-04-07T01:36:12;12.30;99.90
17370;DHT22;8802;52.402;4.920;2023-04-07T01:38:40;12.30;99.90
17370;DHT22;8802;52.402;4.920;2023-04-07T01:41:09;12.30;99.90
17370;DHT22;8802;52.402;4.920;2023-04-07T01:43:38;12.30;99.90
17370;DHT22;8802;52.402;4.920;2023-04-07T01:46:06;12.30;99.90
17370;DHT22;8802;52.402;4.920;2023-04-07T01:48:35;12.30;99.90
17370;DHT22;8802;52.402;4.920;2023-04-07T01:51:04;12.30;99.90
17370;DHT22;8802;52.402;4.920;2023-04-07T01:53:31;12.30;99.90
17370;DHT22;8802;52.402;4.920;2023-04-07T01:56:02;12.40;99.90
17370;DHT22;8802;52.402;4.920;2023-04-07T01:58:29;12.30;99.90
17370;DHT22;8802;52.402;4.920;2023-04-07T02:00:56;12.30;99.90
17370;DHT22;8802;52.402;4.920;2023-04-07T02:03:28;12.40;99.90
17370;DHT22;8802;52.402;4.920;2023-04-07T02:06:03;12.30;99.90
17370;DHT22;8802;52.402;4.920;2023-04-07T02:08:32;12.30;99.90
17370;DHT22;8802;52.402;4.920;2023-04-07T02:11:03;12.30;99.90
17370;DHT22;8802;52.402;4.920;2023-04-07T02:13:33;12.30;99.90
17370;DHT22;8802;52.402;4.920;2023-04-07T02:16:01;12.40;99.90
17370;DHT22;8802;52.402;4.920;2023-04-07T02:18:29;12.40;99.90
17370;DHT22;8802;52.402;4.920;2023-04-07T02:20:59;12.40;99.90
17370;DHT22;8802;52.402;4.920;2023-04-07T02:23:27;12.40;99.90
17370;DHT22;8802;52.402;4.920;2023-04-07T02:25:55;12.40;99.90
17370;DHT22;8802;52.402;4.920;2023-04-07T02:28:22;12.40;99.90
17370;DHT22;8802;52.402;4.920;2023-04-07T02:30:49;12.40;99.90
17370;DHT22;8802;52.402;4.920;2023-04-07T02:33:16;12.40;99.90
17370;DHT22;8802;52.402;4.920;2023-04-07T02:35:43;12.30;99.90
17370;DHT22;8802;52.402;4.920;2023-04-07T02:38:11;12.30;99.90
17370;DHT22;8802;52.402;4.920;2023-04-07T02:40:38;12.30;99.90
17370;DHT22;8802;52.402;4.920;2023-04-07T02:43:05;12.30;99.90
17370;DHT22;8802;52.402;4.920;2023-04-07T02:45:32;12.30;99.90
17370;DHT22;8802;52.402;4.920;2023-04-07T02:47:59;12.30;99.90
17370;DHT22;8802;52.402;4.920;2023-04-07T02:50:25;12.30;99.90
17370;DHT22;8802;52.402;4.920;2023-04-07T02:52:53;12.30;99.90
17370;DHT22;8802;52.402;4.920;2023-04-07T02:55:21;12.30;99.90
17370;DHT22;8802;52.402;4.920;2023-04-07T02:57:48;12.30;99.90
17370;DHT22;8802;52.402;4.920;2023-04-07T03:00:15;12.30;99.90
17370;DHT22;8802;52.402;4.920;2023-04-07T03:02:42;12.30;99.90
17370;DHT22;8802;52.402;4.920;2023-04-07T03:05:09;12.30;99.90
17370;DHT22;8802;52.402;4.920;2023-04-07T03:07:36;12.30;99.90
17370;DHT22;8802;52.402;4.920;2023-04-07T03:10:03;12.30;99.90
17370;DHT22;8802;52.402;4.920;2023-04-07T03:12:31;12.30;99.90
17370;DHT22;8802;52.402;4.920;2023-04-07T03:14:58;12.30;99.90
17370;DHT22;8802;52.402;4.920;2023-04-07T03:17:25;12.30;99.90
17370;DHT22;8802;52.402;4.920;2023-04-07T03:19:52;12.30;99.90
17370;DHT22;8802;52.402;4.920;2023-04-07T03:22:19;12.30;99.90
17370;DHT22;8802;52.402;4.920;2023-04-07T03:24:46;12.30;99.90
17370;DHT22;8802;52.402;4.920;2023-04-07T03:27:12;12.30;99.90
17370;DHT22;8802;52.402;4.920;2023-04-07T03:29:43;12.20;99.90
17370;DHT22;8802;52.402;4.920;2023-04-07T03:32:10;12.20;99.90
17370;DHT22;8802;52.402;4.920;2023-04-07T03:34:37;12.20;99.90
17370;DHT22;8802;52.402;4.920;2023-04-07T03:37:03;12.20;99.90
17370;DHT22;8802;52.402;4.920;2023-04-07T03:39:30;12.20;99.90
17370;DHT22;8802;52.402;4.920;2023-04-07T03:41:57;12.20;99.90
17370;DHT22;8802;52.402;4.920;2023-04-07T03:44:24;12.20;99.90
17370;DHT22;8802;52.402;4.920;2023-04-07T03:46:52;12.20;99.90
17370;DHT22;8802;52.402;4.920;2023-04-07T03:49:19;12.20;99.90
17370;DHT22;8802;52.402;4.920;2023-04-07T03:51:46;12.20;99.90
17370;DHT22;8802;52.402;4.920;2023-04-07T03:54:13;12.20;99.90
17370;DHT22;8802;52.402;4.920;2023-04-07T03:56:40;12.20;99.90
17370;DHT22;8802;52.402;4.920;2023-04-07T03:59:07;12.20;99.90
17370;DHT22;8802;52.402;4.920;2023-04-07T04:01:34;12.20;99.90
17370;DHT22;8802;52.402;4.920;2023-04-07T04:04:03;12.20;99.90
17370;DHT22;8802;52.402;4.920;2023-04-07T04:06:30;12.20;99.90
17370;DHT22;8802;52.402;4.920;2023-04-07T04:08:57;12.20;99.90
17370;DHT22;8802;52.402;4.920;2023-04-07T04:11:23;12.20;99.90
17370;DHT22;8802;52.402;4.920;2023-04-07T04:13:50;12.20;99.90
17370;DHT22;8802;52.402;4.920;2023-04-07T04:16:17;12.20;99.90
17370;DHT22;8802;52.402;4.920;2023-04-07T04:18:44;12.20;99.90
17370;DHT22;8802;52.402;4.920;2023-04-07T04:21:12;12.20;99.90
17370;DHT22;8802;52.402;4.920;2023-04-07T04:23:39;12.20;99.90
17370;DHT22;8802;52.402;4.920;2023-04-07T04:26:06;12.20;99.90
17370;DHT22;8802;52.402;4.920;2023-04-07T04:28:33;12.20;99.90
17370;DHT22;8802;52.402;4.920;2023-04-07T04:31:00;12.20;99.90
17370;DHT22;8802;52.402;4.920;2023-04-07T04:33:27;12.20;99.90
17370;DHT22;8802;52.402;4.920;2023-04-07T04:35:54;12.20;99.90
17370;DHT22;8802;52.402;4.920;2023-04-07T04:38:22;12.20;99.90
17370;DHT22;8802;52.402;4.920;2023-04-07T04:40:49;12.20;99.90
17370;DHT22;8802;52.402;4.920;2023-04-07T04:43:16;12.20;99.90
17370;DHT22;8802;52.402;4.920;2023-04-07T04:45:43;12.20;99.90
17370;DHT22;8802;52.402;4.920;2023-04-07T04:48:10;12.20;99.90
17370;DHT22;8802;52.402;4.920;2023-04-07T04:50:37;12.20;99.90
17370;DHT22;8802;52.402;4.920;2023-04-07T04:53:04;12.20;99.90
17370;DHT22;8802;52.402;4.920;2023-04-07T04:55:32;12.20;99.90
17370;DHT22;8802;52.402;4.920;2023-04-07T04:57:59;12.20;99.90
17370;DHT22;8802;52.402;4.920;2023-04-07T05:00:26;12.20;99.90
17370;DHT22;8802;52.402;4.920;2023-04-07T05:02:54;12.20;99.90
17370;DHT22;8802;52.402;4.920;2023-04-07T05:05:20;12.20;99.90
17370;DHT22;8802;52.402;4.920;2023-04-07T05:07:47;12.20;99.90
17370;DHT22;8802;52.402;4.920;2023-04-07T05:10:14;12.20;99.90
17370;DHT22;8802;52.402;4.920;2023-04-07T05:12:42;12.20;99.90
17370;DHT22;8802;52.402;4.920;2023-04-07T05:15:10;12.20;99.90
17370;DHT22;8802;52.402;4.920;2023-04-07T05:17:37;12.20;99.90
17370;DHT22;8802;52.402;4.920;2023-04-07T05:20:05;12.20;99.90
17370;DHT22;8802;52.402;4.920;2023-04-07T05:22:32;12.20;99.90
17370;DHT22;8802;52.402;4.920;2023-04-07T05:24:59;12.20;99.90
17370;DHT22;8802;52.402;4.920;2023-04-07T05:27:26;12.20;99.90
17370;DHT22;8802;52.402;4.920;2023-04-07T05:29:54;12.20;99.90
17370;DHT22;8802;52.402;4.920;2023-04-07T05:32:21;12.20;99.90
17370;DHT22;8802;52.402;4.920;2023-04-07T05:34:48;12.20;99.90
17370;DHT22;8802;52.402;4.920;2023-04-07T05:37:15;12.20;99.90
17370;DHT22;8802;52.402;4.920;2023-04-07T05:39:42;12.20;99.90
17370;DHT22;8802;52.402;4.920;2023-04-07T05:42:08;12.20;99.90
17370;DHT22;8802;52.402;4.920;2023-04-07T05:44:35;12.30;99.90
17370;DHT22;8802;52.402;4.920;2023-04-07T05:47:03;12.30;99.90
17370;DHT22;8802;52.402;4.920;2023-04-07T05:49:33;12.30;99.90
17370;DHT22;8802;52.402;4.920;2023-04-07T05:52:00;12.30;99.90
17370;DHT22;8802;52.402;4.920;2023-04-07T05:54:27;12.30;99.90
17370;DHT22;8802;52.402;4.920;2023-04-07T05:56:54;12.30;99.90
17370;DHT22;8802;52.402;4.920;2023-04-07T05:59:21;12.30;99.90
17370;DHT22;8802;52.402;4.920;2023-04-07T06:01:48;12.30;99.90
17370;DHT22;8802;52.402;4.920;2023-04-07T06:04:17;12.30;99.90
17370;DHT22;8802;52.402;4.920;2023-04-07T06:06:43;12.30;99.90
17370;DHT22;8802;52.402;4.920;2023-04-07T06:09:10;12.30;99.90
17370;DHT22;8802;52.402;4.920;2023-04-07T06:11:37;12.30;99.90
17370;DHT22;8802;52.402;4.920;2023-04-07T06:14:04;12.30;99.90
17370;DHT22;8802;52.402;4.920;2023-04-07T06:16:31;12.30;99.90
17370;DHT22;8802;52.402;4.920;2023-04-07T06:18:58;12.30;99.90
17370;DHT22;8802;52.402;4.920;2023-04-07T06:21:26;12.30;99.90
17370;DHT22;8802;52.402;4.920;2023-04-07T06:23:53;12.30;99.90
17370;DHT22;8802;52.402;4.920;2023-04-07T06:26:20;12.30;99.90
17370;DHT22;8802;52.402;4.920;2023-04-07T06:28:48;12.30;99.90
17370;DHT22;8802;52.402;4.920;2023-04-07T06:31:15;12.30;99.90
17370;DHT22;8802;52.402;4.920;2023-04-07T06:33:41;12.30;99.90
17370;DHT22;8802;52.402;4.920;2023-04-07T06:36:08;12.30;99.90
17370;DHT22;8802;52.402;4.920;2023-04-07T06:38:37;12.30;99.90
17370;DHT22;8802;52.402;4.920;2023-04-07T06:41:04;12.30;99.90
17370;DHT22;8802;52.402;4.920;2023-04-07T06:43:32;12.30;99.90
17370;DHT22;8802;52.402;4.920;2023-04-07T06:45:59;12.20;99.90
17370;DHT22;8802;52.402;4.920;2023-04-07T06:48:26;12.20;99.90
17370;DHT22;8802;52.402;4.920;2023-04-07T06:50:52;12.20;99.90
17370;DHT22;8802;52.402;4.920;2023-04-07T06:53:19;12.20;99.90
17370;DHT22;8802;52.402;4.920;2023-04-07T06:55:48;12.20;99.90
17370;DHT22;8802;52.402;4.920;2023-04-07T06:58:15;12.20;99.90
17370;DHT22;8802;52.402;4.920;2023-04-07T07:00:41;12.30;99.90
17370;DHT22;8802;52.402;4.920;2023-04-07T07:03:08;12.20;99.90
17370;DHT22;8802;52.402;4.920;2023-04-07T07:05:35;12.30;99.90
17370;DHT22;8802;52.402;4.920;2023-04-07T07:08:02;12.30;99.90
17370;DHT22;8802;52.402;4.920;2023-04-07T07:10:29;12.30;99.90
17370;DHT22;8802;52.402;4.920;2023-04-07T07:12:57;12.30;99.90
17370;DHT22;8802;52.402;4.920;2023-04-07T07:15:24;12.30;99.90
17370;DHT22;8802;52.402;4.920;2023-04-07T07:17:51;12.30;99.90
17370;DHT22;8802;52.402;4.920;2023-04-07T07:20:18;12.30;99.90
17370;DHT22;8802;52.402;4.920;2023-04-07T07:22:48;12.30;99.90
17370;DHT22;8802;52.402;4.920;2023-04-07T07:25:15;12.30;99.90
17370;DHT22;8802;52.402;4.920;2023-04-07T07:27:42;12.30;99.90
17370;DHT22;8802;52.402;4.920;2023-04-07T07:30:11;12.30;99.90
17370;DHT22;8802;52.402;4.920;2023-04-07T07:32:38;12.40;99.90
17370;DHT22;8802;52.402;4.920;2023-04-07T07:35:05;12.40;99.90
17370;DHT22;8802;52.402;4.920;2023-04-07T07:37:32;12.40;99.90
17370;DHT22;8802;52.402;4.920;2023-04-07T07:39:59;12.40;99.90
17370;DHT22;8802;52.402;4.920;2023-04-07T07:42:26;12.40;99.90
17370;DHT22;8802;52.402;4.920;2023-04-07T07:44:53;12.40;99.90
17370;DHT22;8802;52.402;4.920;2023-04-07T07:47:21;12.40;99.90
17370;DHT22;8802;52.402;4.920;2023-04-07T07:49:48;12.50;99.90
17370;DHT22;8802;52.402;4.920;2023-04-07T07:52:15;12.50;99.90
17370;DHT22;8802;52.402;4.920;2023-04-07T07:54:42;12.50;99.90
17370;DHT22;8802;52.402;4.920;2023-04-07T07:57:09;12.50;99.90
17370;DHT22;8802;52.402;4.920;2023-04-07T07:59:37;12.50;99.90
17370;DHT22;8802;52.402;4.920;2023-04-07T08:02:05;12.60;99.90
17370;DHT22;8802;52.402;4.920;2023-04-07T08:04:34;12.60;99.90
17370;DHT22;8802;52.402;4.920;2023-04-07T08:07:01;12.60;99.90
17370;DHT22;8802;52.402;4.920;2023-04-07T08:09:28;12.60;99.90
17370;DHT22;8802;52.402;4.920;2023-04-07T08:11:57;12.60;99.90
17370;DHT22;8802;52.402;4.920;2023-04-07T08:14:23;12.60;99.90
17370;DHT22;8802;52.402;4.920;2023-04-07T08:16:50;12.60;99.90
17370;DHT22;8802;52.402;4.920;2023-04-07T08:19:17;12.60;99.90
17370;DHT22;8802;52.402;4.920;2023-04-07T08:21:45;12.60;99.90
17370;DHT22;8802;52.402;4.920;2023-04-07T08:24:12;12.70;99.90
17370;DHT22;8802;52.402;4.920;2023-04-07T08:26:39;12.70;99.90
17370;DHT22;8802;52.402;4.920;2023-04-07T08:29:06;12.70;99.90
17370;DHT22;8802;52.402;4.920;2023-04-07T08:31:33;12.80;99.90
17370;DHT22;8802;52.402;4.920;2023-04-07T08:34:00;12.80;99.90
17370;DHT22;8802;52.402;4.920;2023-04-07T08:36:27;12.80;99.90
17370;DHT22;8802;52.402;4.920;2023-04-07T08:38:56;12.80;99.90
17370;DHT22;8802;52.402;4.920;2023-04-07T08:41:28;12.90;99.90
17370;DHT22;8802;52.402;4.920;2023-04-07T08:43:57;12.90;99.90
17370;DHT22;8802;52.402;4.920;2023-04-07T08:46:24;12.90;99.90
17370;DHT22;8802;52.402;4.920;2023-04-07T08:48:52;12.90;99.90
17370;DHT22;8802;52.402;4.920;2023-04-07T08:51:28;13.00;99.90
17370;DHT22;8802;52.402;4.920;2023-04-07T08:54:03;13.00;99.90
17370;DHT22;8802;52.402;4.920;2023-04-07T08:56:32;13.00;99.90
17370;DHT22;8802;52.402;4.920;2023-04-07T08:59:00;13.00;99.90
17370;DHT22;8802;52.402;4.920;2023-04-07T09:01:28;13.00;99.90
17370;DHT22;8802;52.402;4.920;2023-04-07T09:03:56;13.10;99.90
17370;DHT22;8802;52.402;4.920;2023-04-07T09:06:23;13.10;99.90
17370;DHT22;8802;52.402;4.920;2023-04-07T09:08:51;13.10;99.90
17370;DHT22;8802;52.402;4.920;2023-04-07T09:11:20;13.10;99.90
17370;DHT22;8802;52.402;4.920;2023-04-07T09:13:49;13.20;99.90
17370;DHT22;8802;52.402;4.920;2023-04-07T09:16:16;13.20;99.90
17370;DHT22;8802;52.402;4.920;2023-04-07T09:18:43;13.20;99.90
17370;DHT22;8802;52.402;4.920;2023-04-07T09:21:09;13.20;99.90
17370;DHT22;8802;52.402;4.920;2023-04-07T09:23:38;13.20;99.90
17370;DHT22;8802;52.402;4.920;2023-04-07T09:26:23;13.20;99.90
17370;DHT22;8802;52.402;4.920;2023-04-07T09:28:52;13.20;99.90
17370;DHT22;8802;52.402;4.920;2023-04-07T09:31:20;13.20;99.90
17370;DHT22;8802;52.402;4.920;2023-04-07T09:33:48;13.10;99.90
17370;DHT22;8802;52.402;4.920;2023-04-07T09:36:15;13.10;99.90
17370;DHT22;8802;52.402;4.920;2023-04-07T09:38:43;13.10;99.90
17370;DHT22;8802;52.402;4.920;2023-04-07T09:41:11;13.00;99.90
17370;DHT22;8802;52.402;4.920;2023-04-07T09:43:41;13.00;99.90
17370;DHT22;8802;52.402;4.920;2023-04-07T09:46:11;13.00;99.90
17370;DHT22;8802;52.402;4.920;2023-04-07T09:48:38;13.00;99.90
17370;DHT22;8802;52.402;4.920;2023-04-07T09:51:07;12.90;99.90
17370;DHT22;8802;52.402;4.920;2023-04-07T09:53:41;12.90;99.90
17370;DHT22;8802;52.402;4.920;2023-04-07T09:56:09;12.90;99.90
17370;DHT22;8802;52.402;4.920;2023-04-07T09:58:37;12.90;99.90
17370;DHT22;8802;52.402;4.920;2023-04-07T10:01:07;12.90;99.90
17370;DHT22;8802;52.402;4.920;2023-04-07T10:03:35;12.90;99.90
17370;DHT22;8802;52.402;4.920;2023-04-07T10:06:03;12.90;99.90
17370;DHT22;8802;52.402;4.920;2023-04-07T10:08:32;12.80;99.90
17370;DHT22;8802;52.402;4.920;2023-04-07T10:11:00;12.90;99.90
17370;DHT22;8802;52.402;4.920;2023-04-07T10:13:28;12.80;99.90
17370;DHT22;8802;52.402;4.920;2023-04-07T10:15:55;12.80;99.90
17370;DHT22;8802;52.402;4.920;2023-04-07T10:18:28;12.80;99.90
17370;DHT22;8802;52.402;4.920;2023-04-07T10:20:56;12.80;99.90
17370;DHT22;8802;52.402;4.920;2023-04-07T10:23:36;12.80;99.90
17370;DHT22;8802;52.402;4.920;2023-04-07T10:26:06;12.80;99.90
17370;DHT22;8802;52.402;4.920;2023-04-07T10:28:37;12.80;99.90
17370;DHT22;8802;52.402;4.920;2023-04-07T10:31:04;12.80;99.90
17370;DHT22;8802;52.402;4.920;2023-04-07T10:33:50;12.90;99.90
17370;DHT22;8802;52.402;4.920;2023-04-07T10:36:18;12.90;99.90
17370;DHT22;8802;52.402;4.920;2023-04-07T10:39:19;12.90;99.90
17370;DHT22;8802;52.402;4.920;2023-04-07T10:41:46;12.90;99.90
17370;DHT22;8802;52.402;4.920;2023-04-07T10:47:13;13.00;99.90
17370;DHT22;8802;52.402;4.920;2023-04-07T10:50:17;13.00;99.90
17370;DHT22;8802;52.402;4.920;2023-04-07T10:52:45;13.00;99.90
17370;DHT22;8802;52.402;4.920;2023-04-07T10:55:30;13.10;99.90
17370;DHT22;8802;52.402;4.920;2023-04-07T10:58:20;13.10;99.90
17370;DHT22;8802;52.402;4.920;2023-04-07T11:01:16;13.20;99.90
17370;DHT22;8802;52.402;4.920;2023-04-07T11:03:58;13.20;99.90
17370;DHT22;8802;52.402;4.920;2023-04-07T11:06:26;13.20;99.90
17370;DHT22;8802;52.402;4.920;2023-04-07T11:08:53;13.20;99.90
17370;DHT22;8802;52.402;4.920;2023-04-07T11:11:36;13.30;99.90
17370;DHT22;8802;52.402;4.920;2023-04-07T11:14:04;13.30;99.90
17370;DHT22;8802;52.402;4.920;2023-04-07T11:16:39;13.30;99.90
17370;DHT22;8802;52.402;4.920;2023-04-07T11:19:07;13.30;99.90
17370;DHT22;8802;52.402;4.920;2023-04-07T11:21:35;13.30;99.90
17370;DHT22;8802;52.402;4.920;2023-04-07T11:24:02;13.30;99.90
17370;DHT22;8802;52.402;4.920;2023-04-07T11:26:29;13.30;99.90
17370;DHT22;8802;52.402;4.920;2023-04-07T11:29:02;13.30;99.90
17370;DHT22;8802;52.402;4.920;2023-04-07T11:31:29;13.20;99.90
17370;DHT22;8802;52.402;4.920;2023-04-07T11:33:58;13.20;99.90
17370;DHT22;8802;52.402;4.920;2023-04-07T11:36:27;13.20;99.90
17370;DHT22;8802;52.402;4.920;2023-04-07T11:38:56;13.20;99.90
17370;DHT22;8802;52.402;4.920;2023-04-07T11:41:24;13.20;99.90
17370;DHT22;8802;52.402;4.920;2023-04-07T11:44:08;13.20;99.90
17370;DHT22;8802;52.402;4.920;2023-04-07T11:46:36;13.20;99.90
17370;DHT22;8802;52.402;4.920;2023-04-07T11:49:10;13.20;99.90
17370;DHT22;8802;52.402;4.920;2023-04-07T11:51:38;13.20;99.90
17370;DHT22;8802;52.402;4.920;2023-04-07T11:54:06;13.30;99.90
17370;DHT22;8802;52.402;4.920;2023-04-07T11:56:42;13.30;99.90
17370;DHT22;8802;52.402;4.920;2023-04-07T11:59:19;13.30;99.90
17370;DHT22;8802;52.402;4.920;2023-04-07T12:01:48;13.40;99.90
17370;DHT22;8802;52.402;4.920;2023-04-07T12:04:15;13.40;99.90
17370;DHT22;8802;52.402;4.920;2023-04-07T12:06:44;13.40;99.90
17370;DHT22;8802;52.402;4.920;2023-04-07T12:09:27;13.50;99.90
17370;DHT22;8802;52.402;4.920;2023-04-07T12:11:55;13.50;99.90
17370;DHT22;8802;52.402;4.920;2023-04-07T12:14:22;13.50;99.90
17370;DHT22;8802;52.402;4.920;2023-04-07T12:16:49;13.50;99.90
17370;DHT22;8802;52.402;4.920;2023-04-07T12:19:17;13.50;99.90
17370;DHT22;8802;52.402;4.920;2023-04-07T12:21:44;13.60;99.90
17370;DHT22;8802;52.402;4.920;2023-04-07T12:24:11;13.60;99.90
17370;DHT22;8802;52.402;4.920;2023-04-07T12:26:39;13.60;99.90
17370;DHT22;8802;52.402;4.920;2023-04-07T12:29:06;13.60;99.90
17370;DHT22;8802;52.402;4.920;2023-04-07T12:31:33;13.60;99.90
17370;DHT22;8802;52.402;4.920;2023-04-07T12:34:01;13.60;99.90
17370;DHT22;8802;52.402;4.920;2023-04-07T12:36:28;13.60;99.90
17370;DHT22;8802;52.402;4.920;2023-04-07T12:38:55;13.60;99.90
17370;DHT22;8802;52.402;4.920;2023-04-07T12:41:22;13.60;99.90
17370;DHT22;8802;52.402;4.920;2023-04-07T12:43:51;13.60;99.90
17370;DHT22;8802;52.402;4.920;2023-04-07T12:46:18;13.60;99.90
17370;DHT22;8802;52.402;4.920;2023-04-07T12:48:45;13.60;99.90
17370;DHT22;8802;52.402;4.920;2023-04-07T12:51:14;13.60;99.90
17370;DHT22;8802;52.402;4.920;2023-04-07T12:53:40;13.60;99.90
17370;DHT22;8802;52.402;4.920;2023-04-07T12:56:07;13.60;99.90
17370;DHT22;8802;52.402;4.920;2023-04-07T12:58:34;13.60;99.90
17370;DHT22;8802;52.402;4.920;2023-04-07T13:01:02;13.60;99.90
17370;DHT22;8802;52.402;4.920;2023-04-07T13:03:29;13.60;99.90
17370;DHT22;8802;52.402;4.920;2023-04-07T13:05:56;13.60;99.90
17370;DHT22;8802;52.402;4.920;2023-04-07T13:08:26;13.60;99.90
17370;DHT22;8802;52.402;4.920;2023-04-07T13:10:54;13.60;99.90
17370;DHT22;8802;52.402;4.920;2023-04-07T13:13:22;13.50;99.90
17370;DHT22;8802;52.402;4.920;2023-04-07T13:15:49;13.50;99.90
17370;DHT22;8802;52.402;4.920;2023-04-07T13:18:18;13.50;99.90
17370;DHT22;8802;52.402;4.920;2023-04-07T13:20:45;13.50;99.90
17370;DHT22;8802;52.402;4.920;2023-04-07T13:23:12;13.50;99.90
17370;DHT22;8802;52.402;4.920;2023-04-07T13:25:39;13.50;99.90
17370;DHT22;8802;52.402;4.920;2023-04-07T13:28:06;13.50;99.90
17370;DHT22;8802;52.402;4.920;2023-04-07T13:30:33;13.50;99.90
17370;DHT22;8802;52.402;4.920;2023-04-07T13:33:00;13.50;99.90
17370;DHT22;8802;52.402;4.920;2023-04-07T13:35:29;13.50;99.90
17370;DHT22;8802;52.402;4.920;2023-04-07T13:38:00;13.40;99.90
17370;DHT22;8802;52.402;4.920;2023-04-07T13:40:27;13.50;99.90
17370;DHT22;8802;52.402;4.920;2023-04-07T13:42:54;13.50;99.90
17370;DHT22;8802;52.402;4.920;2023-04-07T13:45:21;13.50;99.90
17370;DHT22;8802;52.402;4.920;2023-04-07T13:47:48;13.50;99.90
17370;DHT22;8802;52.402;4.920;2023-04-07T13:50:15;13.50;99.90
17370;DHT22;8802;52.402;4.920;2023-04-07T13:52:43;13.40;99.90
17370;DHT22;8802;52.402;4.920;2023-04-07T13:55:10;13.50;99.90
17370;DHT22;8802;52.402;4.920;2023-04-07T13:57:37;13.50;99.90
17370;DHT22;8802;52.402;4.920;2023-04-07T14:00:05;13.50;99.90
17370;DHT22;8802;52.402;4.920;2023-04-07T14:02:32;13.50;99.90
17370;DHT22;8802;52.402;4.920;2023-04-07T14:04:59;13.50;99.90
17370;DHT22;8802;52.402;4.920;2023-04-07T14:07:26;13.50;99.90
17370;DHT22;8802;52.402;4.920;2023-04-07T14:09:55;13.50;99.90
17370;DHT22;8802;52.402;4.920;2023-04-07T14:12:23;13.50;99.90
17370;DHT22;8802;52.402;4.920;2023-04-07T14:14:49;13.50;99.90
17370;DHT22;8802;52.402;4.920;2023-04-07T14:17:17;13.50;99.90
17370;DHT22;8802;52.402;4.920;2023-04-07T14:19:45;13.50;99.90
17370;DHT22;8802;52.402;4.920;2023-04-07T14:22:12;13.50;99.90
17370;DHT22;8802;52.402;4.920;2023-04-07T14:24:39;13.50;99.90
17370;DHT22;8802;52.402;4.920;2023-04-07T14:27:07;13.60;99.90
17370;DHT22;8802;52.402;4.920;2023-04-07T14:29:34;13.50;99.90
17370;DHT22;8802;52.402;4.920;2023-04-07T14:32:01;13.60;99.90
17370;DHT22;8802;52.402;4.920;2023-04-07T14:34:28;13.60;99.90
17370;DHT22;8802;52.402;4.920;2023-04-07T14:36:55;13.60;99.90
17370;DHT22;8802;52.402;4.920;2023-04-07T14:39:23;13.60;99.90
17370;DHT22;8802;52.402;4.920;2023-04-07T14:41:51;13.60;99.90
17370;DHT22;8802;52.402;4.920;2023-04-07T14:44:19;13.60;99.90
17370;DHT22;8802;52.402;4.920;2023-04-07T14:46:46;13.50;99.90
17370;DHT22;8802;52.402;4.920;2023-04-07T14:49:14;13.60;99.90
17370;DHT22;8802;52.402;4.920;2023-04-07T14:51:41;13.60;99.90
17370;DHT22;8802;52.402;4.920;2023-04-07T14:54:08;13.60;99.90
17370;DHT22;8802;52.402;4.920;2023-04-07T14:56:35;13.60;99.90
17370;DHT22;8802;52.402;4.920;2023-04-07T14:59:01;13.60;99.90
17370;DHT22;8802;52.402;4.920;2023-04-07T15:01:30;13.60;99.90
17370;DHT22;8802;52.402;4.920;2023-04-07T15:03:57;13.60;99.90
17370;DHT22;8802;52.402;4.920;2023-04-07T15:06:25;13.60;99.90
17370;DHT22;8802;52.402;4.920;2023-04-07T15:08:52;13.70;99.90
17370;DHT22;8802;52.402;4.920;2023-04-07T15:11:19;13.70;99.90
17370;DHT22;8802;52.402;4.920;2023-04-07T15:13:47;13.70;99.90
17370;DHT22;8802;52.402;4.920;2023-04-07T15:16:14;13.60;99.90
17370;DHT22;8802;52.402;4.920;2023-04-07T15:18:44;13.60;99.90
17370;DHT22;8802;52.402;4.920;2023-04-07T15:21:12;13.70;99.90
17370;DHT22;8802;52.402;4.920;2023-04-07T15:23:39;13.70;99.90
17370;DHT22;8802;52.402;4.920;2023-04-07T15:26:07;13.70;99.90
17370;DHT22;8802;52.402;4.920;2023-04-07T15:28:34;13.70;99.90
17370;DHT22;8802;52.402;4.920;2023-04-07T15:31:01;13.70;99.90
17370;DHT22;8802;52.402;4.920;2023-04-07T15:33:28;13.70;99.90
17370;DHT22;8802;52.402;4.920;2023-04-07T15:35:56;13.70;99.90
17370;DHT22;8802;52.402;4.920;2023-04-07T15:38:24;13.70;99.90
17370;DHT22;8802;52.402;4.920;2023-04-07T15:40:51;13.70;99.90
17370;DHT22;8802;52.402;4.920;2023-04-07T15:43:18;13.70;99.90
17370;DHT22;8802;52.402;4.920;2023-04-07T15:45:46;13.70;99.90
17370;DHT22;8802;52.402;4.920;2023-04-07T15:48:13;13.80;99.90
17370;DHT22;8802;52.402;4.920;2023-04-07T15:50:40;13.80;99.90
17370;DHT22;8802;52.402;4.920;2023-04-07T15:53:08;13.80;99.90
17370;DHT22;8802;52.402;4.920;2023-04-07T15:55:36;13.80;99.90
17370;DHT22;8802;52.402;4.920;2023-04-07T15:58:03;13.80;99.90